Malvern, Iowa
Current Conditions -  °F | °C
As of 2:35 AM on Sunday 23 Nov 2014 (Local Time) from KRDK Reporting Station
Overcast Overcast  
Wind Chill: 54°   Ceiling: 1500
Heat Index: 54°   Visibility: 10mi
Dew Point: 52°   Wind: 15mph
Humidity: 94%   Direction: 190°S
Pressure: 29.55"   Gusts: 21mph
Location:  41°N, 95.59°W
Report Text: KRDK 230835Z AUTO 19013G18KT 10SM OVC015 12/11 A2955 RMK AO2
Loading
Personal Weather Stations






























Interactive Weather Map New forecast layout! Learn more

10-Day Weather Forecast

Advertisements
Track Severe Weather on mobile